Wetterdaten: Woche 05.09.16 - 11.09.16 (KW36)
Datum Zeit Temp. A. Feuchte A. Luftdruck Regen Wind Richtung Sonnenschein ET UV Solar Taupunkt Windchill Windben Empfang
05.09.2016 00:00 18,8 C 76 % 1012,8 hPa 0,8 l/m 15,0 km/h (3 Bft) W-SW 0,00 h 0,000 mm 0,0 UV-I 0 W/m 14,4 C 16,0 C 23,5 km/h (4 Bft) 97,86 %
05.09.2016 01:00 16,8 C 90 % 1013,3 hPa 2,2 l/m 15,3 km/h (3 Bft) SW 0,00 h 0,051 mm 0,0 UV-I 0 W/m 15,1 C 13,3 C 24,2 km/h (4 Bft) 99,37 %
05.09.2016 02:00 16,2 C 93 % 1013,1 hPa 0,8 l/m 13,9 km/h (3 Bft) SW 0,00 h 0,025 mm 0,0 UV-I 0 W/m 15,1 C 13,1 C 23,3 km/h (4 Bft) 97,92 %
05.09.2016 03:00 16,2 C 92 % 1012,7 hPa 2,4 l/m 17,2 km/h (3 Bft) SW 0,00 h 0,026 mm 0,0 UV-I 0 W/m 14,9 C 12,1 C 26,8 km/h (4 Bft) 98,95 %
05.09.2016 04:00 14,8 C 91 % 1013,1 hPa 6,6 l/m 17,0 km/h (3 Bft) W-SW 0,00 h 0,025 mm 0,0 UV-I 0 W/m 13,3 C 10,5 C 27,6 km/h (4 Bft) 98,30 %
05.09.2016 05:00 13,7 C 92 % 1013,4 hPa 0,2 l/m 12,4 km/h (3 Bft) SW 0,00 h 0,025 mm 0,0 UV-I 0 W/m 12,4 C 10,7 C 19,1 km/h (3 Bft) 99,44 %
05.09.2016 06:00 14,2 C 91 % 1013,8 hPa 0,0 l/m 13,4 km/h (3 Bft) SW 0,00 h 0,026 mm 0,0 UV-I 5 W/m 12,7 C 10,8 C 21,2 km/h (4 Bft) 97,43 %
05.09.2016 07:00 14,5 C 90 % 1014,6 hPa 0,0 l/m 18,5 km/h (3 Bft) SW 0,00 h 0,025 mm 0,0 UV-I 25 W/m 12,9 C 9,5 C 28,3 km/h (4 Bft) 99,44 %
05.09.2016 08:00 14,9 C 88 % 1014,9 hPa 0,0 l/m 18,1 km/h (3 Bft) W-SW 0,00 h 0,026 mm 0,6 UV-I 123 W/m 13,0 C 10,2 C 27,2 km/h (4 Bft) 97,73 %
05.09.2016 09:00 15,6 C 87 % 1015,0 hPa 0,0 l/m 15,4 km/h (3 Bft) W-SW 0,00 h 0,101 mm 0,6 UV-I 148 W/m 13,4 C 11,8 C 24,0 km/h (4 Bft) 98,44 %
05.09.2016 10:00 16,3 C 84 % 1015,1 hPa 0,0 l/m 12,8 km/h (3 Bft) W-SW 0,20 h 0,102 mm 1,3 UV-I 245 W/m 13,6 C 13,6 C 19,9 km/h (4 Bft) 97,65 %
05.09.2016 11:00 17,0 C 79 % 1015,4 hPa 0,0 l/m 14,3 km/h (3 Bft) W-SW 0,00 h 0,152 mm 1,7 UV-I 263 W/m 13,3 C 13,9 C 23,2 km/h (4 Bft) 98,74 %
05.09.2016 12:00 17,2 C 76 % 1015,3 hPa 0,0 l/m 15,0 km/h (3 Bft) W-SW 0,00 h 0,178 mm 1,3 UV-I 190 W/m 12,9 C 13,9 C 25,2 km/h (4 Bft) 98,42 %
05.09.2016 13:00 16,7 C 83 % 1015,2 hPa 3,0 l/m 7,5 km/h (2 Bft) W 0,10 h 0,152 mm 1,2 UV-I 170 W/m 13,7 C 15,8 C 14,2 km/h (3 Bft) 99,51 %
05.09.2016 14:00 16,4 C 88 % 1015,5 hPa 0,0 l/m 8,0 km/h (2 Bft) W 0,23 h 0,102 mm 2,4 UV-I 365 W/m 14,3 C 15,5 C 15,4 km/h (3 Bft) 97,66 %
05.09.2016 15:00 17,9 C 76 % 1015,6 hPa 0,0 l/m 10,1 km/h (2 Bft) W 0,17 h 0,229 mm 1,6 UV-I 234 W/m 13,7 C 16,3 C 20,6 km/h (4 Bft) 99,29 %
05.09.2016 16:00 18,1 C 70 % 1015,8 hPa 0,0 l/m 12,4 km/h (3 Bft) W-SW 0,03 h 0,152 mm 0,9 UV-I 175 W/m 12,5 C 15,8 C 21,2 km/h (4 Bft) 97,70 %
05.09.2016 17:00 17,9 C 71 % 1016,4 hPa 0,2 l/m 11,5 km/h (2 Bft) W 0,00 h 0,152 mm 0,6 UV-I 79 W/m 12,6 C 15,8 C 20,7 km/h (4 Bft) 99,24 %
05.09.2016 18:00 15,9 C 80 % 1017,1 hPa 0,0 l/m 12,1 km/h (2 Bft) W-SW 0,00 h 0,102 mm 0,0 UV-I 30 W/m 12,5 C 13,3 C 18,8 km/h (3 Bft) 96,88 %
05.09.2016 19:00 15,6 C 86 % 1017,9 hPa 0,4 l/m 10,0 km/h (2 Bft) W-SW 0,00 h 0,051 mm 0,0 UV-I 6 W/m 13,3 C 13,9 C 17,2 km/h (3 Bft) 98,96 %
05.09.2016 20:00 14,8 C 91 % 1018,6 hPa 0,0 l/m 13,4 km/h (3 Bft) W 0,00 h 0,025 mm 0,0 UV-I 0 W/m 13,2 C 11,5 C 20,3 km/h (4 Bft) 98,15 %
05.09.2016 21:00 14,7 C 92 % 1019,2 hPa 0,0 l/m 10,9 km/h (2 Bft) SW 0,00 h 0,026 mm 0,0 UV-I 0 W/m 13,3 C 12,4 C 17,6 km/h (3 Bft) 99,23 %
05.09.2016 22:00 14,6 C 92 % 1019,4 hPa 0,2 l/m 9,6 km/h (2 Bft) SW 0,00 h 0,025 mm 0,0 UV-I 0 W/m 13,3 C 13,0 C 15,5 km/h (3 Bft) 97,65 %
05.09.2016 23:00 14,6 C 93 % 1019,7 hPa 1,2 l/m 11,0 km/h (2 Bft) W-SW 0,00 h 0,000 mm 0,0 UV-I 0 W/m 13,6 C 12,4 C 17,6 km/h (3 Bft) 99,73 %
06.09.2016 00:00 14,4 C 95 % 1019,9 hPa 0,6 l/m 12,5 km/h (3 Bft) W-SW 0,00 h 0,000 mm 0,0 UV-I 0 W/m 13,6 C 11,5 C 19,2 km/h (3 Bft) 97,62 %
06.09.2016 01:00 14,4 C 94 % 1020,0 hPa 0,4 l/m 9,8 km/h (2 Bft) W-SW 0,00 h 0,000 mm 0,0 UV-I 0 W/m 13,5 C 12,6 C 16,5 km/h (3 Bft) 99,01 %
06.09.2016 02:00 14,3 C 95 % 1020,4 hPa 1,8 l/m 9,4 km/h (2 Bft) W-SW 0,00 h 0,000 mm 0,0 UV-I 0 W/m 13,5 C 12,7 C 16,2 km/h (3 Bft) 97,85 %
06.09.2016 03:00 14,1 C 96 % 1020,5 hPa 3,2 l/m 7,5 km/h (2 Bft) W-SW 0,00 h 0,000 mm 0,0 UV-I 0 W/m 13,5 C 13,4 C 13,4 km/h (3 Bft) 99,35 %
06.09.2016 04:00 14,1 C 96 % 1020,6 hPa 0,2 l/m 7,6 km/h (2 Bft) W-SW 0,00 h 0,000 mm 0,0 UV-I 0 W/m 13,5 C 13,4 C 13,2 km/h (3 Bft) 97,86 %
06.09.2016 05:00 14,1 C 96 % 1020,7 hPa 0,0 l/m 9,1 km/h (2 Bft) W-SW 0,00 h 0,000 mm 0,0 UV-I 0 W/m 13,5 C 12,6 C 15,2 km/h (3 Bft) 98,85 %
06.09.2016 06:00 14,1 C 96 % 1021,1 hPa 0,0 l/m 6,2 km/h (2 Bft) W-SW 0,00 h 0,000 mm 0,0 UV-I 9 W/m 13,4 C 13,7 C 12,4 km/h (3 Bft) 97,99 %
06.09.2016 07:00 14,1 C 96 % 1021,7 hPa 0,2 l/m 5,8 km/h (2 Bft) W 0,00 h 0,000 mm 0,0 UV-I 47 W/m 13,5 C 13,9 C 10,8 km/h (2 Bft) 98,34 %
06.09.2016 08:00 15,0 C 95 % 1022,2 hPa 0,0 l/m 6,4 km/h (2 Bft) W-SW 0,00 h 0,025 mm 0,0 UV-I 82 W/m 14,1 C 14,7 C 11,2 km/h (2 Bft) 97,92 %
06.09.2016 09:00 15,3 C 93 % 1022,7 hPa 0,0 l/m 3,6 km/h (1 Bft) W 0,00 h 0,051 mm 0,5 UV-I 82 W/m 14,2 C 15,2 C 7,0 km/h (2 Bft) 98,80 %
06.09.2016 10:00 15,7 C 91 % 1023,1 hPa 0,0 l/m 2,7 km/h (1 Bft) W-SW 0,00 h 0,051 mm 0,7 UV-I 98 W/m 14,3 C 15,7 C 5,4 km/h (1 Bft) 97,94 %
06.09.2016 11:00 15,7 C 87 % 1023,5 hPa 0,0 l/m 2,4 km/h (1 Bft) W-SW 0,00 h 0,051 mm 0,8 UV-I 95 W/m 13,5 C 15,7 C 4,6 km/h (1 Bft) 98,79 %
06.09.2016 12:00 15,7 C 83 % 1023,6 hPa 0,0 l/m 2,0 km/h (1 Bft) W 0,00 h 0,051 mm 0,5 UV-I 69 W/m 12,9 C 15,7 C 4,8 km/h (1 Bft) 97,66 %
06.09.2016 13:00 15,1 C 82 % 1023,5 hPa 0,0 l/m 5,6 km/h (1 Bft) W-SW 0,00 h 0,050 mm 0,0 UV-I 25 W/m 12,2 C 14,9 C 9,4 km/h (2 Bft) 99,13 %
06.09.2016 14:00 14,7 C 87 % 1023,7 hPa 0,2 l/m 7,8 km/h (2 Bft) S 0,00 h 0,026 mm 0,0 UV-I 29 W/m 12,5 C 13,8 C 12,9 km/h (3 Bft) 97,46 %
06.09.2016 15:00 13,1 C 94 % 1024,3 hPa 0,8 l/m 11,4 km/h (2 Bft) S 0,00 h 0,025 mm 0,0 UV-I 34 W/m 12,1 C 10,4 C 19,7 km/h (3 Bft) 99,29 %
06.09.2016 16:00 12,8 C 95 % 1024,4 hPa 0,2 l/m 11,8 km/h (2 Bft) S-SW 0,00 h 0,026 mm 0,0 UV-I 34 W/m 12,0 C 9,8 C 19,5 km/h (3 Bft) 97,56 %
06.09.2016 17:00 12,9 C 96 % 1024,8 hPa 0,2 l/m 11,0 km/h (2 Bft) S 0,00 h 0,025 mm 0,0 UV-I 18 W/m 12,3 C 10,4 C 17,4 km/h (3 Bft) 99,59 %
06.09.2016 18:00 13,0 C 95 % 1024,9 hPa 0,0 l/m 9,5 km/h (2 Bft) S-SW 0,00 h 0,025 mm 0,0 UV-I 11 W/m 12,3 C 11,3 C 14,7 km/h (3 Bft) 98,01 %
06.09.2016 19:00 13,1 C 95 % 1025,1 hPa 0,0 l/m 9,1 km/h (2 Bft) S-SW 0,00 h 0,000 mm 0,0 UV-I 5 W/m 12,3 C 11,5 C 14,6 km/h (3 Bft) 99,30 %
06.09.2016 20:00 13,2 C 95 % 1025,4 hPa 0,0 l/m 8,2 km/h (2 Bft) S-SW 0,00 h 0,000 mm 0,0 UV-I 0 W/m 12,4 C 12,0 C 13,5 km/h (3 Bft) 97,38 %
06.09.2016 21:00 13,2 C 95 % 1025,6 hPa 0,0 l/m 7,6 km/h (2 Bft) S-SW 0,00 h 0,000 mm 0,0 UV-I 0 W/m 12,4 C 12,4 C 12,2 km/h (2 Bft) 98,92 %
06.09.2016 22:00 13,3 C 95 % 1025,8 hPa 0,0 l/m 7,1 km/h (2 Bft) S-SW 0,00 h 0,000 mm 0,0 UV-I 0 W/m 12,5 C 12,7 C 11,0 km/h (2 Bft) 97,55 %
06.09.2016 23:00 13,3 C 96 % 1026,0 hPa 0,6 l/m 4,1 km/h (1 Bft) SW 0,00 h 0,000 mm 0,0 UV-I 0 W/m 12,6 C 13,2 C 6,7 km/h (2 Bft) 99,44 %
07.09.2016 00:00 13,3 C 96 % 1025,7 hPa 0,2 l/m 4,7 km/h (1 Bft) S-SW 0,00 h 0,000 mm 0,0 UV-I 0 W/m 12,7 C 13,3 C 8,1 km/h (2 Bft) 98,02 %
07.09.2016 01:00 13,4 C 97 % 1025,6 hPa 0,0 l/m 2,5 km/h (1 Bft) W-SW 0,00 h 0,000 mm 0,0 UV-I 0 W/m 12,9 C 13,4 C 4,3 km/h (1 Bft) 98,87 %
07.09.2016 02:00 13,4 C 97 % 1025,3 hPa 0,0 l/m 1,6 km/h (1 Bft) S-SW 0,00 h 0,000 mm 0,0 UV-I 0 W/m 13,0 C 13,4 C 2,9 km/h (1 Bft) 97,60 %
07.09.2016 03:00 13,5 C 97 % 1024,8 hPa 0,0 l/m 1,4 km/h (1 Bft) S-SW 0,00 h 0,000 mm 0,0 UV-I 0 W/m 13,0 C 13,5 C 2,4 km/h (1 Bft) 99,09 %
07.09.2016 04:00 13,5 C 97 % 1024,1 hPa 0,0 l/m 4,1 km/h (1 Bft) O-SO 0,00 h 0,000 mm 0,0 UV-I 0 W/m 13,0 C 13,5 C 6,4 km/h (2 Bft) 97,47 %
07.09.2016 05:00 13,4 C 97 % 1023,3 hPa 0,0 l/m 7,9 km/h (2 Bft) O-NO 0,00 h 0,000 mm 0,0 UV-I 0 W/m 12,9 C 12,4 C 12,3 km/h (3 Bft) 99,13 %
07.09.2016 06:00 13,4 C 97 % 1023,0 hPa 0,0 l/m 10,7 km/h (2 Bft) O-NO 0,00 h 0,000 mm 0,0 UV-I 6 W/m 12,9 C 11,1 C 16,6 km/h (3 Bft) 97,44 %
07.09.2016 07:00 13,5 C 97 % 1022,6 hPa 0,0 l/m 14,3 km/h (3 Bft) O-NO 0,00 h 0,000 mm 0,0 UV-I 30 W/m 13,1 C 9,7 C 21,0 km/h (4 Bft) 99,06 %
07.09.2016 08:00 14,0 C 96 % 1022,2 hPa 0,0 l/m 16,0 km/h (3 Bft) O-NO 0,00 h 0,025 mm 0,4 UV-I 104 W/m 13,4 C 9,7 C 24,0 km/h (4 Bft) 98,29 %
07.09.2016 09:00 15,2 C 93 % 1022,1 hPa 0,0 l/m 16,5 km/h (3 Bft) NO 0,03 h 0,051 mm 0,9 UV-I 204 W/m 14,1 C 11,0 C 24,6 km/h (4 Bft) 99,24 %
07.09.2016 10:00 16,9 C 89 % 1021,8 hPa 0,0 l/m 20,4 km/h (4 Bft) O-NO 0,80 h 0,127 mm 2,2 UV-I 469 W/m 15,0 C 12,1 C 29,0 km/h (5 Bft) 97,63 %
07.09.2016 11:00 18,6 C 85 % 1021,4 hPa 0,0 l/m 21,0 km/h (4 Bft) O-NO 0,93 h 0,280 mm 3,4 UV-I 616 W/m 16,0 C 14,3 C 29,2 km/h (5 Bft) 99,02 %
07.09.2016 12:00 19,9 C 81 % 1020,8 hPa 0,0 l/m 23,9 km/h (4 Bft) O-NO 1,00 h 0,381 mm 4,2 UV-I 684 W/m 16,6 C 15,4 C 32,9 km/h (5 Bft) 98,22 %
07.09.2016 13:00 21,1 C 79 % 1020,3 hPa 0,0 l/m 21,3 km/h (4 Bft) O-NO 1,00 h 0,457 mm 4,3 UV-I 686 W/m 17,3 C 17,5 C 30,2 km/h (5 Bft) 98,45 %
07.09.2016 14:00 22,0 C 77 % 1019,7 hPa 0,0 l/m 23,3 km/h (4 Bft) O-NO 1,00 h 0,457 mm 3,7 UV-I 644 W/m 17,7 C 18,3 C 33,2 km/h (5 Bft) 98,38 %
07.09.2016 15:00 22,8 C 75 % 1019,2 hPa 0,0 l/m 23,6 km/h (4 Bft) O-NO 1,00 h 0,457 mm 2,6 UV-I 548 W/m 18,0 C 19,3 C 33,2 km/h (5 Bft) 98,30 %
07.09.2016 16:00 23,3 C 75 % 1018,5 hPa 0,0 l/m 20,5 km/h (4 Bft) O-NO 1,00 h 0,407 mm 1,5 UV-I 419 W/m 18,6 C 20,4 C 28,4 km/h (4 Bft) 99,01 %
07.09.2016 17:00 23,1 C 76 % 1018,1 hPa 0,0 l/m 21,5 km/h (4 Bft) O-NO 1,00 h 0,330 mm 0,7 UV-I 260 W/m 18,5 C 20,0 C 30,5 km/h (5 Bft) 97,91 %
07.09.2016 18:00 22,2 C 78 % 1017,4 hPa 0,0 l/m 19,6 km/h (3 Bft) O-NO 0,53 h 0,228 mm 0,0 UV-I 94 W/m 18,1 C 19,1 C 28,1 km/h (4 Bft) 98,73 %
07.09.2016 19:00 21,0 C 82 % 1017,3 hPa 0,0 l/m 19,2 km/h (3 Bft) O-NO 0,07 h 0,127 mm 0,0 UV-I 14 W/m 17,7 C 17,6 C 28,4 km/h (4 Bft) 97,37 %
07.09.2016 20:00 20,2 C 84 % 1017,4 hPa 0,0 l/m 19,1 km/h (3 Bft) O-NO 0,00 h 0,051 mm 0,0 UV-I 0 W/m 17,3 C 16,7 C 27,7 km/h (4 Bft) 99,22 %
07.09.2016 21:00 19,4 C 86 % 1017,2 hPa 0,0 l/m 16,3 km/h (3 Bft) O-NO 0,00 h 0,051 mm 0,0 UV-I 0 W/m 17,0 C 16,3 C 23,6 km/h (4 Bft) 97,79 %
07.09.2016 22:00 18,5 C 88 % 1016,9 hPa 0,0 l/m 13,4 km/h (3 Bft) O-NO 0,00 h 0,025 mm 0,0 UV-I 0 W/m 16,5 C 15,9 C 19,7 km/h (3 Bft) 99,14 %
07.09.2016 23:00 17,7 C 90 % 1016,4 hPa 0,0 l/m 13,4 km/h (3 Bft) O-NO 0,00 h 0,026 mm 0,0 UV-I 0 W/m 16,1 C 15,0 C 18,8 km/h (3 Bft) 97,87 %
08.09.2016 00:00 17,0 C 92 % 1016,1 hPa 0,0 l/m 13,1 km/h (3 Bft) O-NO 0,00 h 0,000 mm 0,0 UV-I 0 W/m 15,7 C 14,3 C 19,2 km/h (3 Bft) 99,19 %
08.09.2016 01:00 16,5 C 93 % 1015,6 hPa 0,0 l/m 10,5 km/h (2 Bft) O-NO 0,00 h 0,025 mm 0,0 UV-I 0 W/m 15,3 C 14,6 C 15,7 km/h (3 Bft) 97,73 %
08.09.2016 02:00 15,9 C 92 % 1014,9 hPa 0,0 l/m 4,9 km/h (1 Bft) O-NO 0,00 h 0,000 mm 0,0 UV-I 0 W/m 14,6 C 15,8 C 8,1 km/h (2 Bft) 99,50 %
08.09.2016 03:00 15,3 C 91 % 1014,5 hPa 0,0 l/m 6,7 km/h (2 Bft) O-NO 0,00 h 0,000 mm 0,0 UV-I 0 W/m 13,9 C 14,9 C 9,8 km/h (2 Bft) 97,45 %
08.09.2016 04:00 15,5 C 89 % 1014,0 hPa 0,0 l/m 8,8 km/h (2 Bft) O-NO 0,00 h 0,000 mm 0,0 UV-I 0 W/m 13,7 C 14,2 C 13,4 km/h (3 Bft) 99,15 %
08.09.2016 05:00 15,0 C 90 % 1013,7 hPa 0,0 l/m 5,2 km/h (1 Bft) O 0,00 h 0,026 mm 0,0 UV-I 0 W/m 13,4 C 14,5 C 8,6 km/h (2 Bft) 98,08 %
08.09.2016 06:00 13,3 C 95 % 1013,8 hPa 0,0 l/m 1,7 km/h (1 Bft) O-NO 0,03 h 0,000 mm 0,0 UV-I 11 W/m 12,4 C 13,3 C 2,9 km/h (1 Bft) 99,43 %
08.09.2016 07:00 13,4 C 96 % 1014,0 hPa 0,0 l/m 0,6 km/h (0 Bft) S 0,37 h 0,000 mm 0,0 UV-I 71 W/m 12,7 C 13,4 C 1,5 km/h (1 Bft) 98,56 %
08.09.2016 08:00 15,9 C 90 % 1014,3 hPa 0,0 l/m 2,1 km/h (1 Bft) O-NO 0,83 h 0,025 mm 0,7 UV-I 221 W/m 14,3 C 15,9 C 4,3 km/h (1 Bft) 98,51 %
08.09.2016 09:00 18,4 C 82 % 1014,4 hPa 0,0 l/m 2,4 km/h (1 Bft) O-NO 1,00 h 0,127 mm 1,5 UV-I 400 W/m 15,2 C 18,4 C 4,5 km/h (1 Bft) 98,37 %
08.09.2016 10:00 20,6 C 74 % 1014,5 hPa 0,0 l/m 2,7 km/h (1 Bft) O-NO 1,00 h 0,229 mm 2,7 UV-I 539 W/m 15,9 C 20,6 C 5,3 km/h (1 Bft) 98,38 %
08.09.2016 11:00 22,7 C 68 % 1014,3 hPa 0,0 l/m 3,4 km/h (1 Bft) O-NO 1,00 h 0,330 mm 3,8 UV-I 640 W/m 16,4 C 22,7 C 6,5 km/h (2 Bft) 98,20 %
08.09.2016 12:00 24,2 C 63 % 1014,0 hPa 0,0 l/m 3,0 km/h (1 Bft) N-NO 1,00 h 0,406 mm 4,5 UV-I 693 W/m 16,8 C 24,2 C 5,7 km/h (1 Bft) 98,79 %
08.09.2016 13:00 25,8 C 59 % 1013,6 hPa 0,0 l/m 4,5 km/h (1 Bft) N-NO 1,00 h 0,432 mm 4,5 UV-I 698 W/m 17,0 C 25,7 C 8,9 km/h (2 Bft) 98,50 %
08.09.2016 14:00 26,4 C 54 % 1013,3 hPa 0,0 l/m 3,9 km/h (1 Bft) N-NO 1,00 h 0,483 mm 3,8 UV-I 646 W/m 16,4 C 26,4 C 7,9 km/h (2 Bft) 98,99 %
08.09.2016 15:00 26,9 C 52 % 1012,7 hPa 0,0 l/m 3,1 km/h (1 Bft) N-NO 1,00 h 0,432 mm 2,8 UV-I 547 W/m 16,1 C 26,9 C 6,6 km/h (2 Bft) 97,83 %
08.09.2016 16:00 27,0 C 49 % 1012,4 hPa 0,0 l/m 2,3 km/h (1 Bft) NO 1,00 h 0,381 mm 1,6 UV-I 424 W/m 15,3 C 27,0 C 4,6 km/h (1 Bft) 99,04 %
08.09.2016 17:00 26,7 C 49 % 1012,2 hPa 0,0 l/m 1,2 km/h (1 Bft) N 1,00 h 0,304 mm 0,7 UV-I 264 W/m 15,0 C 26,7 C 3,1 km/h (1 Bft) 98,08 %
08.09.2016 18:00 25,3 C 58 % 1012,0 hPa 0,0 l/m 2,7 km/h (1 Bft) NO 0,57 h 0,178 mm 0,0 UV-I 92 W/m 16,4 C 25,3 C 4,4 km/h (1 Bft) 99,13 %
08.09.2016 19:00 22,2 C 69 % 1011,9 hPa 0,0 l/m 1,8 km/h (1 Bft) O-NO 0,03 h 0,076 mm 0,0 UV-I 12 W/m 16,3 C 22,2 C 3,2 km/h (1 Bft) 97,97 %
08.09.2016 20:00 19,7 C 80 % 1012,3 hPa 0,0 l/m 1,5 km/h (1 Bft) O-NO 0,00 h 0,026 mm 0,0 UV-I 0 W/m 16,1 C 19,7 C 3,0 km/h (1 Bft) 98,99 %
08.09.2016 21:00 18,2 C 87 % 1012,5 hPa 0,0 l/m 2,6 km/h (1 Bft) S 0,00 h 0,000 mm 0,0 UV-I 0 W/m 16,0 C 18,2 C 4,0 km/h (1 Bft) 97,81 %
08.09.2016 22:00 17,8 C 89 % 1012,9 hPa 0,0 l/m 3,2 km/h (1 Bft) S 0,00 h 0,000 mm 0,0 UV-I 0 W/m 16,0 C 17,8 C 4,9 km/h (1 Bft) 98,73 %
08.09.2016 23:00 17,1 C 91 % 1013,2 hPa 0,0 l/m 0,8 km/h (0 Bft) S-SW 0,00 h 0,000 mm 0,0 UV-I 0 W/m 15,5 C 17,1 C 1,7 km/h (1 Bft) 97,73 %
09.09.2016 00:00 16,4 C 92 % 1013,5 hPa 0,0 l/m 2,1 km/h (1 Bft) S-SW 0,00 h 0,000 mm 0,0 UV-I 0 W/m 15,1 C 16,4 C 3,5 km/h (1 Bft) 99,42 %
09.09.2016 01:00 15,9 C 92 % 1013,7 hPa 0,0 l/m 1,2 km/h (1 Bft) S-SW 0,00 h 0,000 mm 0,0 UV-I 0 W/m 14,6 C 15,9 C 2,5 km/h (1 Bft) 97,78 %
09.09.2016 02:00 15,3 C 93 % 1013,7 hPa 0,0 l/m 0,9 km/h (0 Bft) S-SW 0,00 h 0,000 mm 0,0 UV-I 0 W/m 14,2 C 15,3 C 2,3 km/h (1 Bft) 98,94 %
09.09.2016 03:00 14,9 C 94 % 1013,9 hPa 0,0 l/m 2,5 km/h (1 Bft) S-SW 0,00 h 0,000 mm 0,0 UV-I 0 W/m 13,9 C 14,9 C 3,9 km/h (1 Bft) 97,92 %
09.09.2016 04:00 14,8 C 93 % 1014,1 hPa 0,0 l/m 2,6 km/h (1 Bft) S-SW 0,00 h 0,000 mm 0,0 UV-I 0 W/m 13,7 C 14,8 C 4,2 km/h (1 Bft) 98,89 %
09.09.2016 05:00 14,4 C 94 % 1014,4 hPa 0,0 l/m 1,5 km/h (1 Bft) S-SW 0,00 h 0,000 mm 0,0 UV-I 0 W/m 13,3 C 14,4 C 2,9 km/h (1 Bft) 97,67 %
09.09.2016 06:00 13,8 C 94 % 1014,8 hPa 0,0 l/m 0,7 km/h (0 Bft) S-SW 0,03 h 0,000 mm 0,0 UV-I 12 W/m 12,9 C 13,8 C 1,7 km/h (1 Bft) 98,73 %
09.09.2016 07:00 14,3 C 94 % 1015,2 hPa 0,0 l/m 0,4 km/h (0 Bft) S-SW 0,03 h 0,000 mm 0,0 UV-I 67 W/m 13,3 C 14,3 C 1,2 km/h (1 Bft) 97,46 %
09.09.2016 08:00 16,8 C 89 % 1015,5 hPa 0,0 l/m 0,9 km/h (0 Bft) S-SW 0,73 h 0,025 mm 0,7 UV-I 211 W/m 14,9 C 16,8 C 2,2 km/h (1 Bft) 99,01 %
09.09.2016 09:00 19,2 C 82 % 1015,9 hPa 0,0 l/m 1,3 km/h (1 Bft) S-SW 1,00 h 0,127 mm 1,5 UV-I 379 W/m 16,0 C 19,2 C 3,1 km/h (1 Bft) 98,11 %
09.09.2016 10:00 21,0 C 77 % 1016,0 hPa 0,0 l/m 2,1 km/h (1 Bft) NO 1,00 h 0,229 mm 2,6 UV-I 512 W/m 16,7 C 21,0 C 4,8 km/h (1 Bft) 98,76 %
09.09.2016 11:00 22,9 C 70 % 1015,8 hPa 0,0 l/m 2,8 km/h (1 Bft) W-SW 1,00 h 0,305 mm 3,6 UV-I 613 W/m 17,1 C 22,9 C 5,7 km/h (1 Bft) 97,89 %
09.09.2016 12:00 24,2 C 67 % 1015,5 hPa 0,0 l/m 2,9 km/h (1 Bft) NW 1,00 h 0,381 mm 4,3 UV-I 669 W/m 17,7 C 24,2 C 5,8 km/h (2 Bft) 99,32 %
09.09.2016 13:00 25,3 C 63 % 1015,4 hPa 0,0 l/m 2,9 km/h (1 Bft) NW 1,00 h 0,432 mm 4,2 UV-I 675 W/m 17,9 C 25,3 C 6,0 km/h (2 Bft) 98,03 %
09.09.2016 14:00 26,2 C 61 % 1015,1 hPa 0,0 l/m 3,1 km/h (1 Bft) N-NO 1,00 h 0,431 mm 3,6 UV-I 632 W/m 17,9 C 26,2 C 5,6 km/h (1 Bft) 99,54 %
09.09.2016 15:00 27,2 C 55 % 1014,7 hPa 0,0 l/m 2,3 km/h (1 Bft) S-SO 1,00 h 0,432 mm 2,6 UV-I 545 W/m 17,5 C 27,2 C 4,6 km/h (1 Bft) 98,44 %
09.09.2016 16:00 27,3 C 54 % 1014,3 hPa 0,0 l/m 1,5 km/h (1 Bft) N 1,00 h 0,381 mm 1,5 UV-I 417 W/m 17,0 C 27,3 C 3,5 km/h (1 Bft) 99,32 %
09.09.2016 17:00 26,7 C 56 % 1014,3 hPa 0,0 l/m 1,1 km/h (1 Bft) N 0,77 h 0,280 mm 0,7 UV-I 213 W/m 17,2 C 26,7 C 2,8 km/h (1 Bft) 98,58 %
09.09.2016 18:00 24,5 C 70 % 1014,4 hPa 0,0 l/m 0,3 km/h (0 Bft) N-NW 0,00 h 0,152 mm 0,0 UV-I 61 W/m 18,6 C 24,5 C 1,2 km/h (1 Bft) 99,09 %
09.09.2016 19:00 22,1 C 78 % 1014,5 hPa 0,0 l/m 1,0 km/h (0 Bft) N 0,07 h 0,051 mm 0,0 UV-I 13 W/m 17,9 C 22,1 C 1,9 km/h (1 Bft) 98,04 %
09.09.2016 20:00 20,5 C 84 % 1015,0 hPa 0,0 l/m 1,3 km/h (1 Bft) N 0,00 h 0,025 mm 0,0 UV-I 0 W/m 17,7 C 20,5 C 2,2 km/h (1 Bft) 99,61 %
09.09.2016 21:00 19,3 C 86 % 1015,2 hPa 0,0 l/m 1,9 km/h (1 Bft) N 0,00 h 0,000 mm 0,0 UV-I 0 W/m 16,8 C 19,3 C 3,1 km/h (1 Bft) 98,24 %
09.09.2016 22:00 19,0 C 87 % 1015,5 hPa 0,0 l/m 2,4 km/h (1 Bft) S-SW 0,00 h 0,000 mm 0,0 UV-I 0 W/m 16,8 C 19,0 C 3,8 km/h (1 Bft) 99,53 %
09.09.2016 23:00 17,7 C 91 % 1015,5 hPa 0,0 l/m 0,3 km/h (0 Bft) S-SW 0,00 h 0,000 mm 0,0 UV-I 0 W/m 16,3 C 17,7 C 0,7 km/h (0 Bft) 98,20 %
10.09.2016 00:00 16,9 C 93 % 1015,4 hPa 0,0 l/m 1,9 km/h (1 Bft) S-SW 0,00 h 0,000 mm 0,0 UV-I 0 W/m 15,7 C 16,9 C 3,0 km/h (1 Bft) 99,52 %
10.09.2016 01:00 16,2 C 94 % 1015,3 hPa 0,0 l/m 1,1 km/h (1 Bft) S-SW 0,00 h 0,000 mm 0,0 UV-I 0 W/m 15,3 C 16,2 C 2,4 km/h (1 Bft) 97,71 %
10.09.2016 02:00 15,7 C 95 % 1015,2 hPa 0,0 l/m 0,8 km/h (0 Bft) S-SW 0,00 h 0,000 mm 0,0 UV-I 0 W/m 14,9 C 15,7 C 1,5 km/h (1 Bft) 99,01 %
10.09.2016 03:00 15,2 C 96 % 1015,1 hPa 0,0 l/m 0,9 km/h (0 Bft) S-SW 0,00 h 0,000 mm 0,0 UV-I 0 W/m 14,5 C 15,2 C 1,9 km/h (1 Bft) 98,07 %
10.09.2016 04:00 14,8 C 96 % 1015,0 hPa 0,0 l/m 0,9 km/h (0 Bft) S-SW 0,00 h 0,000 mm 0,0 UV-I 0 W/m 14,2 C 14,8 C 1,9 km/h (1 Bft) 99,62 %
10.09.2016 05:00 14,6 C 96 % 1014,9 hPa 0,0 l/m 0,3 km/h (0 Bft) S-SW 0,00 h 0,000 mm 0,0 UV-I 0 W/m 13,9 C 14,6 C 1,0 km/h (0 Bft) 97,66 %
10.09.2016 06:00 14,1 C 96 % 1015,1 hPa 0,0 l/m 0,5 km/h (0 Bft) S-SW 0,03 h 0,000 mm 0,0 UV-I 11 W/m 13,5 C 14,1 C 0,9 km/h (0 Bft) 99,70 %
10.09.2016 07:00 14,3 C 97 % 1015,2 hPa 0,0 l/m 0,8 km/h (0 Bft) S-SW 0,00 h 0,000 mm 0,0 UV-I 59 W/m 13,7 C 14,3 C 1,6 km/h (1 Bft) 97,97 %
10.09.2016 08:00 16,0 C 97 % 1015,3 hPa 0,0 l/m 1,2 km/h (1 Bft) S-SW 0,30 h 0,025 mm 0,6 UV-I 166 W/m 15,5 C 16,0 C 2,6 km/h (1 Bft) 99,40 %
10.09.2016 09:00 18,0 C 93 % 1015,4 hPa 0,0 l/m 2,0 km/h (1 Bft) NO 1,00 h 0,102 mm 1,4 UV-I 372 W/m 16,9 C 18,0 C 4,7 km/h (1 Bft) 98,20 %
10.09.2016 10:00 20,6 C 82 % 1015,4 hPa 0,0 l/m 5,0 km/h (1 Bft) N-NO 1,00 h 0,203 mm 2,5 UV-I 524 W/m 17,4 C 20,5 C 8,6 km/h (2 Bft) 99,54 %
10.09.2016 11:00 22,7 C 74 % 1015,2 hPa 0,0 l/m 7,4 km/h (2 Bft) NO 1,00 h 0,305 mm 3,5 UV-I 629 W/m 17,8 C 22,3 C 12,6 km/h (3 Bft) 97,96 %
10.09.2016 12:00 24,0 C 70 % 1014,7 hPa 0,0 l/m 5,9 km/h (2 Bft) O-NO 1,00 h 0,406 mm 3,9 UV-I 622 W/m 18,1 C 23,9 C 10,6 km/h (2 Bft) 99,87 %
10.09.2016 13:00 25,6 C 64 % 1014,2 hPa 0,0 l/m 7,4 km/h (2 Bft) NO 1,00 h 0,407 mm 4,0 UV-I 661 W/m 18,2 C 25,4 C 12,7 km/h (3 Bft) 98,18 %
10.09.2016 14:00 26,7 C 57 % 1013,7 hPa 0,0 l/m 9,4 km/h (2 Bft) NO 1,00 h 0,457 mm 3,6 UV-I 640 W/m 17,5 C 26,1 C 14,8 km/h (3 Bft) 99,33 %
10.09.2016 15:00 27,3 C 53 % 1013,3 hPa 0,0 l/m 9,9 km/h (2 Bft) O-NO 1,00 h 0,483 mm 2,6 UV-I 557 W/m 17,0 C 26,7 C 15,6 km/h (3 Bft) 98,04 %
10.09.2016 16:00 27,6 C 53 % 1013,1 hPa 0,0 l/m 8,9 km/h (2 Bft) O-NO 1,00 h 0,431 mm 1,5 UV-I 419 W/m 17,0 C 27,2 C 13,8 km/h (3 Bft) 99,58 %
10.09.2016 17:00 27,1 C 56 % 1012,9 hPa 0,0 l/m 8,5 km/h (2 Bft) O-NO 1,00 h 0,356 mm 0,7 UV-I 254 W/m 17,5 C 26,8 C 13,4 km/h (3 Bft) 98,22 %
10.09.2016 18:00 25,9 C 62 % 1012,7 hPa 0,0 l/m 7,8 km/h (2 Bft) O-NO 0,47 h 0,229 mm 0,0 UV-I 81 W/m 17,9 C 25,5 C 12,4 km/h (3 Bft) 99,05 %
10.09.2016 19:00 23,7 C 67 % 1012,8 hPa 0,0 l/m 6,5 km/h (2 Bft) O-NO 0,03 h 0,101 mm 0,0 UV-I 11 W/m 17,1 C 23,4 C 10,5 km/h (2 Bft) 98,72 %
10.09.2016 20:00 22,6 C 69 % 1013,3 hPa 0,0 l/m 7,7 km/h (2 Bft) O-NO 0,00 h 0,051 mm 0,0 UV-I 0 W/m 16,6 C 22,1 C 12,0 km/h (2 Bft) 99,26 %
10.09.2016 21:00 21,3 C 73 % 1013,4 hPa 0,0 l/m 4,9 km/h (1 Bft) O-NO 0,00 h 0,051 mm 0,0 UV-I 0 W/m 16,3 C 21,3 C 7,6 km/h (2 Bft) 98,51 %
10.09.2016 22:00 20,4 C 76 % 1013,7 hPa 0,0 l/m 4,0 km/h (1 Bft) O-NO 0,00 h 0,025 mm 0,0 UV-I 0 W/m 16,0 C 20,4 C 6,8 km/h (2 Bft) 99,09 %
10.09.2016 23:00 18,4 C 84 % 1014,0 hPa 0,0 l/m 1,1 km/h (1 Bft) O-NO 0,00 h 0,026 mm 0,0 UV-I 0 W/m 15,7 C 18,4 C 2,1 km/h (1 Bft) 98,61 %
11.09.2016 00:00 17,1 C 88 % 1014,1 hPa 0,0 l/m 2,3 km/h (1 Bft) S 0,00 h 0,000 mm 0,0 UV-I 0 W/m 15,1 C 17,1 C 3,9 km/h (1 Bft) 99,18 %
11.09.2016 01:00 16,5 C 91 % 1014,3 hPa 0,0 l/m 1,7 km/h (1 Bft) S 0,00 h 0,000 mm 0,0 UV-I 0 W/m 15,1 C 16,5 C 2,8 km/h (1 Bft) 98,26 %
11.09.2016 02:00 16,1 C 94 % 1014,4 hPa 0,0 l/m 1,8 km/h (1 Bft) S 0,00 h 0,000 mm 0,0 UV-I 0 W/m 15,2 C 16,1 C 3,0 km/h (1 Bft) 99,37 %
11.09.2016 03:00 15,9 C 95 % 1014,5 hPa 0,0 l/m 1,1 km/h (0 Bft) S 0,00 h 0,000 mm 0,0 UV-I 0 W/m 15,1 C 15,9 C 2,0 km/h (1 Bft) 97,72 %
11.09.2016 04:00 15,4 C 96 % 1014,7 hPa 0,0 l/m 1,1 km/h (1 Bft) S 0,00 h 0,000 mm 0,0 UV-I 0 W/m 14,7 C 15,4 C 2,0 km/h (1 Bft) 99,23 %
11.09.2016 05:00 14,9 C 96 % 1014,9 hPa 0,0 l/m 0,4 km/h (0 Bft) S 0,00 h 0,000 mm 0,0 UV-I 0 W/m 14,2 C 14,9 C 0,9 km/h (0 Bft) 97,58 %
11.09.2016 06:00 14,6 C 96 % 1015,3 hPa 0,0 l/m 0,9 km/h (0 Bft) S 0,00 h 0,000 mm 0,0 UV-I 7 W/m 14,0 C 14,6 C 1,9 km/h (1 Bft) 99,25 %
11.09.2016 07:00 15,1 C 96 % 1015,8 hPa 0,0 l/m 2,0 km/h (1 Bft) S 0,00 h 0,000 mm 0,0 UV-I 47 W/m 14,5 C 15,1 C 3,6 km/h (1 Bft) 98,09 %
11.09.2016 08:00 16,6 C 94 % 1016,4 hPa 0,0 l/m 3,4 km/h (1 Bft) S 0,37 h 0,025 mm 0,6 UV-I 166 W/m 15,7 C 16,6 C 5,4 km/h (1 Bft) 99,58 %
11.09.2016 09:00 18,6 C 88 % 1016,9 hPa 0,0 l/m 2,5 km/h (1 Bft) S-SW 1,00 h 0,102 mm 1,2 UV-I 341 W/m 16,6 C 18,6 C 4,5 km/h (1 Bft) 98,12 %
11.09.2016 10:00 20,7 C 81 % 1017,1 hPa 0,0 l/m 2,3 km/h (1 Bft) W 1,00 h 0,203 mm 2,2 UV-I 488 W/m 17,2 C 20,7 C 4,4 km/h (1 Bft) 99,48 %
11.09.2016 11:00 22,6 C 74 % 1017,2 hPa 0,0 l/m 2,0 km/h (1 Bft) NW 1,00 h 0,280 mm 3,2 UV-I 589 W/m 17,7 C 22,6 C 4,3 km/h (1 Bft) 98,10 %
11.09.2016 12:00 24,2 C 68 % 1017,0 hPa 0,0 l/m 2,8 km/h (1 Bft) N-NW 1,00 h 0,355 mm 3,8 UV-I 652 W/m 17,9 C 24,2 C 5,9 km/h (2 Bft) 99,51 %
11.09.2016 13:00 25,2 C 65 % 1016,8 hPa 0,0 l/m 2,3 km/h (1 Bft) NW 1,00 h 0,407 mm 3,7 UV-I 650 W/m 18,2 C 25,2 C 4,3 km/h (1 Bft) 98,22 %
11.09.2016 14:00 26,3 C 63 % 1016,3 hPa 0,0 l/m 2,4 km/h (1 Bft) N-NO 1,00 h 0,431 mm 3,2 UV-I 610 W/m 18,8 C 26,3 C 5,4 km/h (1 Bft) 98,95 %
11.09.2016 15:00 26,8 C 62 % 1016,0 hPa 0,0 l/m 2,7 km/h (1 Bft) N-NO 1,00 h 0,407 mm 2,3 UV-I 525 W/m 18,7 C 26,8 C 5,7 km/h (1 Bft) 98,59 %
11.09.2016 16:00 27,2 C 59 % 1015,8 hPa 0,0 l/m 2,3 km/h (1 Bft) N-NW 1,00 h 0,355 mm 1,3 UV-I 389 W/m 18,3 C 27,2 C 4,5 km/h (1 Bft) 98,63 %
11.09.2016 17:00 27,0 C 58 % 1015,7 hPa 0,0 l/m 2,8 km/h (1 Bft) O 1,00 h 0,280 mm 0,6 UV-I 238 W/m 18,0 C 27,0 C 5,0 km/h (1 Bft) 98,94 %
11.09.2016 18:00 26,1 C 64 % 1015,7 hPa 0,0 l/m 1,8 km/h (1 Bft) SO 0,77 h 0,178 mm 0,0 UV-I 94 W/m 18,7 C 26,1 C 3,6 km/h (1 Bft) 98,10 %
11.09.2016 19:00 22,6 C 79 % 1016,1 hPa 0,0 l/m 0,4 km/h (0 Bft) SO 0,23 h 0,076 mm 0,0 UV-I 13 W/m 18,8 C 22,6 C 0,9 km/h (0 Bft) 99,43 %
11.09.2016 20:00 20,8 C 84 % 1016,6 hPa 0,0 l/m 2,5 km/h (1 Bft) SO 0,00 h 0,000 mm 0,0 UV-I 0 W/m 18,0 C 20,8 C 3,6 km/h (1 Bft) 98,42 %
11.09.2016 21:00 20,4 C 88 % 1017,0 hPa 0,0 l/m 3,0 km/h (1 Bft) S 0,00 h 0,000 mm 0,0 UV-I 0 W/m 18,4 C 20,4 C 4,9 km/h (1 Bft) 99,17 %
11.09.2016 22:00 19,9 C 89 % 1017,1 hPa 0,0 l/m 1,7 km/h (1 Bft) S 0,00 h 0,000 mm 0,0 UV-I 0 W/m 18,1 C 19,9 C 3,0 km/h (1 Bft) 98,29 %
11.09.2016 23:00 18,4 C 93 % 1017,2 hPa 0,0 l/m 1,3 km/h (1 Bft) O-SO 0,00 h 0,000 mm 0,0 UV-I 0 W/m 17,3 C 18,4 C 2,3 km/h (1 Bft) 99,56 %
Min-Datum _ 08.09.16 08.09.16 08.09.16 - 07.09.16 - - - - - 06.09.16 05.09.16 07.09.16 05.09.16
_ Min-Zeit 07:12 17:12 19:00 - 02:36 - - - - - 13:16 04:52 02:36 18:06
Minimum _ 12,6 C 45 % 1011,8 hPa - 0,0 km/h (0 Bft) - - - - - 11,0 C 7,2 C 0,0 km/h (0 Bft) 83,33 %
Max-Datum _ 09.09.16 07.09.16 06.09.16 05.09.16 07.09.16 - 09.09.16 08.09.16 08.09.16 05.09.16 11.09.16 09.09.16 05.09.16 05.09.16
_ Max-Zeit 15:28 07:52 23:06 04:14 15:28 - 12:16 14:00 12:54 14:30 18:50 15:28 04:18 00:00
Maximum _ 27,9 C 98 % 1026,0 hPa 6,6 l/m 28,5 km/h
O-NO (4 Bft)
- 0,07 h 0,483 mm 4,7 UV-I 863 W/m 19,6 C 27,9 C 51,5 km/h
W-SW (7 Bft)
100,00 %
Durchschnitt _ 18,3 C 83 % 1016,9 hPa #26,6 l/m 6,7 km/h (2 Bft) O-NO #49:46 h #19,152 mm 2,1 UV-I 281 W/m 15,2 C 17,3 C 10,9 km/h (2 Bft) 98,56 %